sensor_id;sensor_type;location;lat;lon;timestamp;temperature;humidity
41953;DHT22;63613;28.200;112.870;2022-11-30T00:01:22;14.20;47.60
41953;DHT22;63613;28.200;112.870;2022-11-30T00:03:53;14.10;47.50
41953;DHT22;63613;28.200;112.870;2022-11-30T00:06:20;14.10;47.40
41953;DHT22;63613;28.200;112.870;2022-11-30T00:08:55;14.10;47.30
41953;DHT22;63613;28.200;112.870;2022-11-30T00:11:24;14.10;47.30
41953;DHT22;63613;28.200;112.870;2022-11-30T00:13:51;14.10;47.20
41953;DHT22;63613;28.200;112.870;2022-11-30T00:16:18;14.10;47.20
41953;DHT22;63613;28.200;112.870;2022-11-30T00:18:45;14.10;47.20
41953;DHT22;63613;28.200;112.870;2022-11-30T00:21:13;14.10;47.20
41953;DHT22;63613;28.200;112.870;2022-11-30T00:23:45;14.10;47.00
41953;DHT22;63613;28.200;112.870;2022-11-30T00:26:15;14.10;47.00
41953;DHT22;63613;28.200;112.870;2022-11-30T00:28:44;14.10;47.20
41953;DHT22;63613;28.200;112.870;2022-11-30T00:31:13;14.10;47.40
41953;DHT22;63613;28.200;112.870;2022-11-30T00:33:41;14.10;47.30
41953;DHT22;63613;28.200;112.870;2022-11-30T00:36:12;14.10;47.20
41953;DHT22;63613;28.200;112.870;2022-11-30T00:38:39;14.00;47.20
41953;DHT22;63613;28.200;112.870;2022-11-30T00:41:26;14.00;47.00
41953;DHT22;63613;28.200;112.870;2022-11-30T00:43:53;14.00;47.10
41953;DHT22;63613;28.200;112.870;2022-11-30T00:46:21;14.00;47.00
41953;DHT22;63613;28.200;112.870;2022-11-30T00:48:48;14.00;46.90
41953;DHT22;63613;28.200;112.870;2022-11-30T00:51:15;14.00;47.00
41953;DHT22;63613;28.200;112.870;2022-11-30T00:53:42;14.00;47.00
41953;DHT22;63613;28.200;112.870;2022-11-30T00:56:12;14.00;47.10
41953;DHT22;63613;28.200;112.870;2022-11-30T00:58:42;14.00;47.10
41953;DHT22;63613;28.200;112.870;2022-11-30T01:01:10;14.00;47.20
41953;DHT22;63613;28.200;112.870;2022-11-30T01:03:37;14.00;47.20
41953;DHT22;63613;28.200;112.870;2022-11-30T01:06:06;13.90;47.20
41953;DHT22;63613;28.200;112.870;2022-11-30T01:08:34;13.90;47.30
41953;DHT22;63613;28.200;112.870;2022-11-30T01:11:26;13.90;47.30
41953;DHT22;63613;28.200;112.870;2022-11-30T01:13:56;13.90;47.20
41953;DHT22;63613;28.200;112.870;2022-11-30T01:16:27;13.90;47.20
41953;DHT22;63613;28.200;112.870;2022-11-30T01:18:54;13.90;47.10
41953;DHT22;63613;28.200;112.870;2022-11-30T01:21:24;13.90;47.10
41953;DHT22;63613;28.200;112.870;2022-11-30T01:23:51;13.90;47.00
41953;DHT22;63613;28.200;112.870;2022-11-30T01:26:22;13.90;47.00
41953;DHT22;63613;28.200;112.870;2022-11-30T01:28:53;13.90;47.00
41953;DHT22;63613;28.200;112.870;2022-11-30T01:31:40;13.90;47.00
41953;DHT22;63613;28.200;112.870;2022-11-30T01:34:07;13.90;46.90
41953;DHT22;63613;28.200;112.870;2022-11-30T01:36:35;13.90;46.90
41953;DHT22;63613;28.200;112.870;2022-11-30T01:39:07;13.90;46.90
41953;DHT22;63613;28.200;112.870;2022-11-30T01:41:36;13.90;46.80
41953;DHT22;63613;28.200;112.870;2022-11-30T01:46:59;13.90;46.80
41953;DHT22;63613;28.200;112.870;2022-11-30T01:49:40;13.90;46.60
41953;DHT22;63613;28.200;112.870;2022-11-30T01:52:14;13.90;46.50
41953;DHT22;63613;28.200;112.870;2022-11-30T01:54:53;13.90;46.30
41953;DHT22;63613;28.200;112.870;2022-11-30T01:57:35;13.90;46.10
41953;DHT22;63613;28.200;112.870;2022-11-30T02:00:06;13.90;46.20
41953;DHT22;63613;28.200;112.870;2022-11-30T02:05:28;13.90;46.30
41953;DHT22;63613;28.200;112.870;2022-11-30T02:07:56;13.90;46.40
41953;DHT22;63613;28.200;112.870;2022-11-30T02:10:30;13.90;46.40
41953;DHT22;63613;28.200;112.870;2022-11-30T02:29:35;13.90;46.10
41953;DHT22;63613;28.200;112.870;2022-11-30T02:35:04;13.90;46.10
41953;DHT22;63613;28.200;112.870;2022-11-30T02:37:34;13.90;46.20
41953;DHT22;63613;28.200;112.870;2022-11-30T02:40:14;13.90;46.20
41953;DHT22;63613;28.200;112.870;2022-11-30T02:42:41;13.90;46.00
41953;DHT22;63613;28.200;112.870;2022-11-30T02:45:09;13.90;45.90
41953;DHT22;63613;28.200;112.870;2022-11-30T02:50:21;13.90;45.90
41953;DHT22;63613;28.200;112.870;2022-11-30T02:52:52;13.90;45.90
41953;DHT22;63613;28.200;112.870;2022-11-30T02:55:20;13.90;45.80
41953;DHT22;63613;28.200;112.870;2022-11-30T02:57:47;13.90;45.90
41953;DHT22;63613;28.200;112.870;2022-11-30T03:00:15;13.90;45.80
41953;DHT22;63613;28.200;112.870;2022-11-30T03:02:42;13.90;45.80
41953;DHT22;63613;28.200;112.870;2022-11-30T03:05:09;13.90;46.10
41953;DHT22;63613;28.200;112.870;2022-11-30T03:07:36;13.90;46.20
41953;DHT22;63613;28.200;112.870;2022-11-30T03:10:04;13.90;46.30
41953;DHT22;63613;28.200;112.870;2022-11-30T03:12:32;13.90;46.30
41953;DHT22;63613;28.200;112.870;2022-11-30T03:14:59;13.90;46.20
41953;DHT22;63613;28.200;112.870;2022-11-30T03:17:29;13.90;46.00
41953;DHT22;63613;28.200;112.870;2022-11-30T03:20:16;13.90;45.90
41953;DHT22;63613;28.200;112.870;2022-11-30T03:22:44;13.90;45.90
41953;DHT22;63613;28.200;112.870;2022-11-30T03:25:11;13.90;45.70
41953;DHT22;63613;28.200;112.870;2022-11-30T03:27:38;13.90;45.60
41953;DHT22;63613;28.200;112.870;2022-11-30T03:30:05;13.80;45.60
41953;DHT22;63613;28.200;112.870;2022-11-30T03:32:32;13.80;45.60
41953;DHT22;63613;28.200;112.870;2022-11-30T03:34:59;13.80;45.70
41953;DHT22;63613;28.200;112.870;2022-11-30T03:37:47;13.80;45.70
41953;DHT22;63613;28.200;112.870;2022-11-30T03:40:14;13.80;45.70
41953;DHT22;63613;28.200;112.870;2022-11-30T03:42:41;13.80;45.60
41953;DHT22;63613;28.200;112.870;2022-11-30T03:45:08;13.80;45.40
41953;DHT22;63613;28.200;112.870;2022-11-30T03:47:36;13.80;45.30
41953;DHT22;63613;28.200;112.870;2022-11-30T03:50:04;13.70;45.20
41953;DHT22;63613;28.200;112.870;2022-11-30T03:52:31;13.80;45.00
41953;DHT22;63613;28.200;112.870;2022-11-30T03:54:58;13.80;44.90
41953;DHT22;63613;28.200;112.870;2022-11-30T03:57:25;13.80;45.10
41953;DHT22;63613;28.200;112.870;2022-11-30T03:59:52;13.80;45.60
41953;DHT22;63613;28.200;112.870;2022-11-30T04:02:19;13.90;45.70
41953;DHT22;63613;28.200;112.870;2022-11-30T04:04:49;13.90;45.90
41953;DHT22;63613;28.200;112.870;2022-11-30T04:07:19;13.90;45.90
41953;DHT22;63613;28.200;112.870;2022-11-30T04:10:07;13.90;46.00
41953;DHT22;63613;28.200;112.870;2022-11-30T04:12:34;13.90;46.10
41953;DHT22;63613;28.200;112.870;2022-11-30T04:15:01;13.90;46.40
41953;DHT22;63613;28.200;112.870;2022-11-30T04:17:28;13.80;46.30
41953;DHT22;63613;28.200;112.870;2022-11-30T04:19:55;13.80;46.30
41953;DHT22;63613;28.200;112.870;2022-11-30T04:22:22;13.80;46.50
41953;DHT22;63613;28.200;112.870;2022-11-30T04:24:49;13.80;46.70
41953;DHT22;63613;28.200;112.870;2022-11-30T04:27:19;13.80;47.00
41953;DHT22;63613;28.200;112.870;2022-11-30T04:30:07;13.80;47.00
41953;DHT22;63613;28.200;112.870;2022-11-30T04:32:34;13.80;47.10
41953;DHT22;63613;28.200;112.870;2022-11-30T04:35:01;13.80;47.10
41953;DHT22;63613;28.200;112.870;2022-11-30T04:37:28;13.80;46.90
41953;DHT22;63613;28.200;112.870;2022-11-30T04:39:55;13.70;46.70
41953;DHT22;63613;28.200;112.870;2022-11-30T04:42:22;13.70;46.20
41953;DHT22;63613;28.200;112.870;2022-11-30T04:44:49;13.70;45.60
41953;DHT22;63613;28.200;112.870;2022-11-30T04:47:19;13.70;45.30
41953;DHT22;63613;28.200;112.870;2022-11-30T04:49:46;13.60;45.20
41953;DHT22;63613;28.200;112.870;2022-11-30T04:52:13;13.60;44.90
41953;DHT22;63613;28.200;112.870;2022-11-30T04:54:44;13.60;45.00
41953;DHT22;63613;28.200;112.870;2022-11-30T04:57:11;13.60;45.10
41953;DHT22;63613;28.200;112.870;2022-11-30T04:59:38;13.60;45.10
41953;DHT22;63613;28.200;112.870;2022-11-30T05:02:05;13.60;45.00
41953;DHT22;63613;28.200;112.870;2022-11-30T05:04:32;13.50;45.10
41953;DHT22;63613;28.200;112.870;2022-11-30T05:06:59;13.50;45.10
41953;DHT22;63613;28.200;112.870;2022-11-30T05:09:47;13.50;45.00
41953;DHT22;63613;28.200;112.870;2022-11-30T05:12:15;13.50;44.90
41953;DHT22;63613;28.200;112.870;2022-11-30T05:14:42;13.40;45.00
41953;DHT22;63613;28.200;112.870;2022-11-30T05:17:14;13.40;44.90
41953;DHT22;63613;28.200;112.870;2022-11-30T05:19:42;13.40;44.90
41953;DHT22;63613;28.200;112.870;2022-11-30T05:22:10;13.40;45.10
41953;DHT22;63613;28.200;112.870;2022-11-30T05:24:57;13.40;45.40
41953;DHT22;63613;28.200;112.870;2022-11-30T05:27:24;13.40;45.40
41953;DHT22;63613;28.200;112.870;2022-11-30T05:29:52;13.40;45.70
41953;DHT22;63613;28.200;112.870;2022-11-30T05:32:19;13.40;45.90
41953;DHT22;63613;28.200;112.870;2022-11-30T05:35:06;13.40;45.80
41953;DHT22;63613;28.200;112.870;2022-11-30T05:37:35;13.40;46.20
41953;DHT22;63613;28.200;112.870;2022-11-30T05:40:02;13.40;46.80
41953;DHT22;63613;28.200;112.870;2022-11-30T05:42:33;13.40;47.50
41953;DHT22;63613;28.200;112.870;2022-11-30T05:45:03;13.40;47.40
41953;DHT22;63613;28.200;112.870;2022-11-30T05:47:32;13.50;47.60
41953;DHT22;63613;28.200;112.870;2022-11-30T05:49:59;13.50;47.80
41953;DHT22;63613;28.200;112.870;2022-11-30T05:52:26;13.40;47.90
41953;DHT22;63613;28.200;112.870;2022-11-30T05:54:54;13.40;47.70
41953;DHT22;63613;28.200;112.870;2022-11-30T05:57:21;13.40;47.80
41953;DHT22;63613;28.200;112.870;2022-11-30T05:59:48;13.40;48.00
41953;DHT22;63613;28.200;112.870;2022-11-30T06:02:15;13.40;48.20
41953;DHT22;63613;28.200;112.870;2022-11-30T06:04:42;13.50;47.80
41953;DHT22;63613;28.200;112.870;2022-11-30T06:07:12;13.40;47.40
41953;DHT22;63613;28.200;112.870;2022-11-30T06:09:39;13.40;47.10
41953;DHT22;63613;28.200;112.870;2022-11-30T06:12:07;13.40;47.20
41953;DHT22;63613;28.200;112.870;2022-11-30T06:14:34;13.40;47.00
41953;DHT22;63613;28.200;112.870;2022-11-30T06:17:01;13.40;47.20
41953;DHT22;63613;28.200;112.870;2022-11-30T06:19:29;13.40;47.20
41953;DHT22;63613;28.200;112.870;2022-11-30T06:22:16;13.40;47.00
41953;DHT22;63613;28.200;112.870;2022-11-30T06:24:43;13.40;46.90
41953;DHT22;63613;28.200;112.870;2022-11-30T06:27:11;13.40;47.20
41953;DHT22;63613;28.200;112.870;2022-11-30T06:29:38;13.40;47.20
41953;DHT22;63613;28.200;112.870;2022-11-30T06:32:08;13.40;47.00
41953;DHT22;63613;28.200;112.870;2022-11-30T06:34:38;13.40;47.10
41953;DHT22;63613;28.200;112.870;2022-11-30T06:37:05;13.40;47.00
41953;DHT22;63613;28.200;112.870;2022-11-30T06:39:32;13.40;46.90
41953;DHT22;63613;28.200;112.870;2022-11-30T06:41:59;13.40;46.80
41953;DHT22;63613;28.200;112.870;2022-11-30T06:44:26;13.40;46.70
41953;DHT22;63613;28.200;112.870;2022-11-30T06:46:53;13.40;46.70
41953;DHT22;63613;28.200;112.870;2022-11-30T06:49:40;13.40;46.60
41953;DHT22;63613;28.200;112.870;2022-11-30T06:52:08;13.40;47.30
41953;DHT22;63613;28.200;112.870;2022-11-30T06:54:38;13.40;47.20
41953;DHT22;63613;28.200;112.870;2022-11-30T06:57:05;13.40;47.40
41953;DHT22;63613;28.200;112.870;2022-11-30T06:59:32;13.40;47.40
41953;DHT22;63613;28.200;112.870;2022-11-30T07:02:02;13.40;47.20
41953;DHT22;63613;28.200;112.870;2022-11-30T07:04:29;13.40;46.90
41953;DHT22;63613;28.200;112.870;2022-11-30T07:07:16;13.30;46.90
41953;DHT22;63613;28.200;112.870;2022-11-30T07:09:44;13.30;47.40
41953;DHT22;63613;28.200;112.870;2022-11-30T07:12:11;13.30;47.00
41953;DHT22;63613;28.200;112.870;2022-11-30T07:14:38;13.30;47.10
41953;DHT22;63613;28.200;112.870;2022-11-30T07:17:08;13.40;47.50
41953;DHT22;63613;28.200;112.870;2022-11-30T07:19:38;13.40;47.80
41953;DHT22;63613;28.200;112.870;2022-11-30T07:22:05;13.30;48.10
41953;DHT22;63613;28.200;112.870;2022-11-30T07:24:32;13.30;48.20
41953;DHT22;63613;28.200;112.870;2022-11-30T07:27:18;13.30;48.10
41953;DHT22;63613;28.200;112.870;2022-11-30T07:29:49;13.40;47.70
41953;DHT22;63613;28.200;112.870;2022-11-30T07:32:18;13.40;47.60
41953;DHT22;63613;28.200;112.870;2022-11-30T07:34:45;13.30;47.80
41953;DHT22;63613;28.200;112.870;2022-11-30T07:37:14;13.30;47.80
41953;DHT22;63613;28.200;112.870;2022-11-30T07:39:42;13.20;47.80
41953;DHT22;63613;28.200;112.870;2022-11-30T07:42:09;13.30;47.60
41953;DHT22;63613;28.200;112.870;2022-11-30T07:44:39;13.30;47.70
41953;DHT22;63613;28.200;112.870;2022-11-30T07:47:06;13.20;47.50
41953;DHT22;63613;28.200;112.870;2022-11-30T07:49:34;13.20;47.50
41953;DHT22;63613;28.200;112.870;2022-11-30T07:52:02;13.20;47.60
41953;DHT22;63613;28.200;112.870;2022-11-30T07:54:29;13.20;47.30
41953;DHT22;63613;28.200;112.870;2022-11-30T07:56:57;13.20;47.30
41953;DHT22;63613;28.200;112.870;2022-11-30T07:59:24;13.20;47.50
41953;DHT22;63613;28.200;112.870;2022-11-30T08:01:54;13.20;47.30
41953;DHT22;63613;28.200;112.870;2022-11-30T08:04:25;13.10;47.20
41953;DHT22;63613;28.200;112.870;2022-11-30T08:06:55;13.10;47.30
41953;DHT22;63613;28.200;112.870;2022-11-30T08:09:22;13.10;47.50
41953;DHT22;63613;28.200;112.870;2022-11-30T08:11:49;13.10;47.60
41953;DHT22;63613;28.200;112.870;2022-11-30T08:14:19;13.20;47.60
41953;DHT22;63613;28.200;112.870;2022-11-30T08:16:46;13.20;47.30
41953;DHT22;63613;28.200;112.870;2022-11-30T08:19:14;13.10;47.30
41953;DHT22;63613;28.200;112.870;2022-11-30T08:21:41;13.10;47.70
41953;DHT22;63613;28.200;112.870;2022-11-30T08:24:10;13.10;47.70
41953;DHT22;63613;28.200;112.870;2022-11-30T08:26:41;13.10;47.90
41953;DHT22;63613;28.200;112.870;2022-11-30T08:29:09;13.10;48.00
41953;DHT22;63613;28.200;112.870;2022-11-30T08:31:37;13.10;47.80
41953;DHT22;63613;28.200;112.870;2022-11-30T08:34:07;13.00;47.60
41953;DHT22;63613;28.200;112.870;2022-11-30T08:36:35;13.00;47.60
41953;DHT22;63613;28.200;112.870;2022-11-30T08:39:03;13.00;47.50
41953;DHT22;63613;28.200;112.870;2022-11-30T08:41:35;13.00;47.50
41953;DHT22;63613;28.200;112.870;2022-11-30T08:44:04;13.00;47.70
41953;DHT22;63613;28.200;112.870;2022-11-30T08:46:33;13.00;47.70
41953;DHT22;63613;28.200;112.870;2022-11-30T08:49:00;13.00;48.10
41953;DHT22;63613;28.200;112.870;2022-11-30T08:51:27;13.00;48.00
41953;DHT22;63613;28.200;112.870;2022-11-30T08:53:54;13.00;48.00
41953;DHT22;63613;28.200;112.870;2022-11-30T08:56:25;13.00;48.20
41953;DHT22;63613;28.200;112.870;2022-11-30T08:58:53;13.00;48.00
41953;DHT22;63613;28.200;112.870;2022-11-30T09:01:29;13.00;48.00
41953;DHT22;63613;28.200;112.870;2022-11-30T09:04:08;13.00;47.90
41953;DHT22;63613;28.200;112.870;2022-11-30T09:06:36;13.00;48.10
41953;DHT22;63613;28.200;112.870;2022-11-30T09:09:06;13.00;47.80
41953;DHT22;63613;28.200;112.870;2022-11-30T09:11:33;12.90;47.70
41953;DHT22;63613;28.200;112.870;2022-11-30T09:14:03;13.00;47.50
41953;DHT22;63613;28.200;112.870;2022-11-30T09:16:35;13.00;47.70
41953;DHT22;63613;28.200;112.870;2022-11-30T09:19:06;12.90;48.10
41953;DHT22;63613;28.200;112.870;2022-11-30T09:21:33;12.90;48.60
41953;DHT22;63613;28.200;112.870;2022-11-30T09:24:00;12.90;48.80
41953;DHT22;63613;28.200;112.870;2022-11-30T09:26:56;12.90;48.60
41953;DHT22;63613;28.200;112.870;2022-11-30T09:29:23;12.90;48.10
41953;DHT22;63613;28.200;112.870;2022-11-30T09:31:50;12.90;48.20
41953;DHT22;63613;28.200;112.870;2022-11-30T09:34:17;12.90;48.20
41953;DHT22;63613;28.200;112.870;2022-11-30T09:36:45;12.80;48.30
41953;DHT22;63613;28.200;112.870;2022-11-30T09:39:13;12.80;48.70
41953;DHT22;63613;28.200;112.870;2022-11-30T09:44:24;12.80;48.60
41953;DHT22;63613;28.200;112.870;2022-11-30T09:49:36;12.90;49.00
41953;DHT22;63613;28.200;112.870;2022-11-30T09:52:10;12.90;48.70
41953;DHT22;63613;28.200;112.870;2022-11-30T09:54:43;12.90;48.90
41953;DHT22;63613;28.200;112.870;2022-11-30T10:00:00;12.90;48.40
41953;DHT22;63613;28.200;112.870;2022-11-30T10:02:35;12.90;48.30
41953;DHT22;63613;28.200;112.870;2022-11-30T10:05:21;12.90;48.80
41953;DHT22;63613;28.200;112.870;2022-11-30T10:11:20;12.80;49.40
41953;DHT22;63613;28.200;112.870;2022-11-30T10:14:22;12.80;49.40
41953;DHT22;63613;28.200;112.870;2022-11-30T10:19:57;12.80;49.40
41953;DHT22;63613;28.200;112.870;2022-11-30T10:25:56;12.80;49.30
41953;DHT22;63613;28.200;112.870;2022-11-30T10:31:12;12.80;48.60
41953;DHT22;63613;28.200;112.870;2022-11-30T10:33:50;12.80;48.60
41953;DHT22;63613;28.200;112.870;2022-11-30T10:36:32;12.80;48.30
41953;DHT22;63613;28.200;112.870;2022-11-30T10:39:21;12.80;47.90
41953;DHT22;63613;28.200;112.870;2022-11-30T10:42:00;12.80;48.40
41953;DHT22;63613;28.200;112.870;2022-11-30T10:44:37;12.80;48.40
41953;DHT22;63613;28.200;112.870;2022-11-30T10:47:21;12.80;48.60
41953;DHT22;63613;28.200;112.870;2022-11-30T10:49:50;12.70;48.10
41953;DHT22;63613;28.200;112.870;2022-11-30T10:52:45;12.70;48.50
41953;DHT22;63613;28.200;112.870;2022-11-30T10:55:22;12.70;48.50
41953;DHT22;63613;28.200;112.870;2022-11-30T10:58:01;12.70;48.30
41953;DHT22;63613;28.200;112.870;2022-11-30T11:00:30;12.70;48.40
41953;DHT22;63613;28.200;112.870;2022-11-30T11:02:57;12.70;48.10
41953;DHT22;63613;28.200;112.870;2022-11-30T11:05:25;12.60;48.10
41953;DHT22;63613;28.200;112.870;2022-11-30T11:07:57;12.70;48.00
41953;DHT22;63613;28.200;112.870;2022-11-30T11:10:44;12.60;47.60
41953;DHT22;63613;28.200;112.870;2022-11-30T11:13:18;12.60;47.70
41953;DHT22;63613;28.200;112.870;2022-11-30T11:16:17;12.60;47.40
41953;DHT22;63613;28.200;112.870;2022-11-30T11:18:55;12.60;47.30
41953;DHT22;63613;28.200;112.870;2022-11-30T11:21:23;12.60;46.80
41953;DHT22;63613;28.200;112.870;2022-11-30T11:23:55;12.60;46.70
41953;DHT22;63613;28.200;112.870;2022-11-30T11:26:25;12.60;46.50
41953;DHT22;63613;28.200;112.870;2022-11-30T11:28:55;12.50;46.30
41953;DHT22;63613;28.200;112.870;2022-11-30T11:34:26;12.50;46.00
41953;DHT22;63613;28.200;112.870;2022-11-30T11:40:03;12.50;45.70
41953;DHT22;63613;28.200;112.870;2022-11-30T11:45:19;12.50;45.70
41953;DHT22;63613;28.200;112.870;2022-11-30T11:47:57;12.40;45.70
41953;DHT22;63613;28.200;112.870;2022-11-30T11:50:32;12.40;45.80
41953;DHT22;63613;28.200;112.870;2022-11-30T11:53:21;12.40;45.80
41953;DHT22;63613;28.200;112.870;2022-11-30T11:56:19;12.40;45.50
41953;DHT22;63613;28.200;112.870;2022-11-30T12:02:01;12.40;45.40
41953;DHT22;63613;28.200;112.870;2022-11-30T12:04:50;12.40;45.40
41953;DHT22;63613;28.200;112.870;2022-11-30T12:10:55;12.30;45.30
41953;DHT22;63613;28.200;112.870;2022-11-30T12:13:36;12.30;45.20
41953;DHT22;63613;28.200;112.870;2022-11-30T12:19:10;12.30;45.40
41953;DHT22;63613;28.200;112.870;2022-11-30T12:24:33;12.30;45.40
41953;DHT22;63613;28.200;112.870;2022-11-30T12:27:34;12.30;45.20
41953;DHT22;63613;28.200;112.870;2022-11-30T12:30:12;12.20;45.50
41953;DHT22;63613;28.200;112.870;2022-11-30T12:33:02;12.30;45.70
41953;DHT22;63613;28.200;112.870;2022-11-30T12:38:20;12.30;45.10
41953;DHT22;63613;28.200;112.870;2022-11-30T12:40:58;12.30;45.10
41953;DHT22;63613;28.200;112.870;2022-11-30T12:44:05;12.40;45.00
41953;DHT22;63613;28.200;112.870;2022-11-30T12:53:01;12.40;45.30
41953;DHT22;63613;28.200;112.870;2022-11-30T13:04:27;12.30;45.10
41953;DHT22;63613;28.200;112.870;2022-11-30T13:10:12;12.30;45.00
41953;DHT22;63613;28.200;112.870;2022-11-30T13:12:46;12.30;44.80
41953;DHT22;63613;28.200;112.870;2022-11-30T13:15:27;12.30;44.80
41953;DHT22;63613;28.200;112.870;2022-11-30T13:17:57;12.30;44.70
41953;DHT22;63613;28.200;112.870;2022-11-30T13:20:51;12.30;44.80
41953;DHT22;63613;28.200;112.870;2022-11-30T13:31:26;12.20;45.20
41953;DHT22;63613;28.200;112.870;2022-11-30T13:33:56;12.20;45.50
41953;DHT22;63613;28.200;112.870;2022-11-30T13:36:35;12.20;45.70
41953;DHT22;63613;28.200;112.870;2022-11-30T13:39:24;12.10;45.90
41953;DHT22;63613;28.200;112.870;2022-11-30T13:45:18;12.10;46.20
41953;DHT22;63613;28.200;112.870;2022-11-30T13:47:51;12.10;46.40
41953;DHT22;63613;28.200;112.870;2022-11-30T13:50:38;12.10;46.40
41953;DHT22;63613;28.200;112.870;2022-11-30T13:53:28;12.10;46.50
41953;DHT22;63613;28.200;112.870;2022-11-30T13:56:31;12.10;46.50
41953;DHT22;63613;28.200;112.870;2022-11-30T13:59:30;12.00;46.60
41953;DHT22;63613;28.200;112.870;2022-11-30T14:26:26;12.00;46.80
41953;DHT22;63613;28.200;112.870;2022-11-30T14:31:33;12.00;47.20
41953;DHT22;63613;28.200;112.870;2022-11-30T14:34:37;11.90;47.10
41953;DHT22;63613;28.200;112.870;2022-11-30T14:37:25;12.00;47.20
41953;DHT22;63613;28.200;112.870;2022-11-30T14:39:55;11.90;47.40
41953;DHT22;63613;28.200;112.870;2022-11-30T14:42:30;11.90;47.50
41953;DHT22;63613;28.200;112.870;2022-11-30T14:44:57;11.90;47.60
41953;DHT22;63613;28.200;112.870;2022-11-30T14:47:30;12.00;47.30
41953;DHT22;63613;28.200;112.870;2022-11-30T14:49:59;12.00;47.20
41953;DHT22;63613;28.200;112.870;2022-11-30T14:53:02;11.90;47.20
41953;DHT22;63613;28.200;112.870;2022-11-30T15:00:58;11.90;47.30
41953;DHT22;63613;28.200;112.870;2022-11-30T15:03:30;11.90;47.20
41953;DHT22;63613;28.200;112.870;2022-11-30T15:06:01;11.90;47.30
41953;DHT22;63613;28.200;112.870;2022-11-30T15:08:37;11.90;47.10
41953;DHT22;63613;28.200;112.870;2022-11-30T15:11:07;11.90;47.10
41953;DHT22;63613;28.200;112.870;2022-11-30T15:13:48;11.90;46.90
41953;DHT22;63613;28.200;112.870;2022-11-30T15:16:48;11.90;47.00
41953;DHT22;63613;28.200;112.870;2022-11-30T15:19:28;11.90;46.90
41953;DHT22;63613;28.200;112.870;2022-11-30T15:21:57;11.90;46.70
41953;DHT22;63613;28.200;112.870;2022-11-30T15:24:25;11.90;46.80
41953;DHT22;63613;28.200;112.870;2022-11-30T15:27:03;11.80;46.70
41953;DHT22;63613;28.200;112.870;2022-11-30T15:29:56;11.80;46.60
41953;DHT22;63613;28.200;112.870;2022-11-30T15:32:27;11.90;46.60
41953;DHT22;63613;28.200;112.870;2022-11-30T15:34:56;11.90;46.50
41953;DHT22;63613;28.200;112.870;2022-11-30T15:37:34;11.90;46.80
41953;DHT22;63613;28.200;112.870;2022-11-30T15:40:06;11.90;46.50
41953;DHT22;63613;28.200;112.870;2022-11-30T15:42:36;11.80;46.30
41953;DHT22;63613;28.200;112.870;2022-11-30T15:47:42;11.80;46.20
41953;DHT22;63613;28.200;112.870;2022-11-30T15:53:00;11.80;46.40
41953;DHT22;63613;28.200;112.870;2022-11-30T15:55:52;11.70;46.50
41953;DHT22;63613;28.200;112.870;2022-11-30T15:58:57;11.80;46.50
41953;DHT22;63613;28.200;112.870;2022-11-30T16:01:30;11.80;46.40
41953;DHT22;63613;28.200;112.870;2022-11-30T16:05:01;11.80;46.30
41953;DHT22;63613;28.200;112.870;2022-11-30T16:07:18;11.80;46.10
41953;DHT22;63613;28.200;112.870;2022-11-30T16:09:46;11.80;46.30
41953;DHT22;63613;28.200;112.870;2022-11-30T16:12:26;11.80;45.60
41953;DHT22;63613;28.200;112.870;2022-11-30T16:14:55;11.70;45.20
41953;DHT22;63613;28.200;112.870;2022-11-30T16:17:25;11.70;45.10
41953;DHT22;63613;28.200;112.870;2022-11-30T16:19:53;11.70;44.80
41953;DHT22;63613;28.200;112.870;2022-11-30T16:22:21;11.70;44.90
41953;DHT22;63613;28.200;112.870;2022-11-30T16:24:48;11.70;44.80
41953;DHT22;63613;28.200;112.870;2022-11-30T16:27:18;11.70;44.80
41953;DHT22;63613;28.200;112.870;2022-11-30T16:29:46;11.70;44.80
41953;DHT22;63613;28.200;112.870;2022-11-30T16:32:14;11.70;44.70
41953;DHT22;63613;28.200;112.870;2022-11-30T16:34:44;11.70;44.60
41953;DHT22;63613;28.200;112.870;2022-11-30T16:37:15;11.70;44.50
41953;DHT22;63613;28.200;112.870;2022-11-30T16:39:43;11.80;44.30
41953;DHT22;63613;28.200;112.870;2022-11-30T16:42:13;11.80;44.20
41953;DHT22;63613;28.200;112.870;2022-11-30T16:44:43;11.80;44.20
41953;DHT22;63613;28.200;112.870;2022-11-30T16:49:57;11.70;44.70
41953;DHT22;63613;28.200;112.870;2022-11-30T16:52:26;11.60;44.60
41953;DHT22;63613;28.200;112.870;2022-11-30T16:54:53;11.70;44.60
41953;DHT22;63613;28.200;112.870;2022-11-30T16:57:20;11.70;44.50
41953;DHT22;63613;28.200;112.870;2022-11-30T16:59:47;11.70;44.60
41953;DHT22;63613;28.200;112.870;2022-11-30T17:02:19;11.70;44.70
41953;DHT22;63613;28.200;112.870;2022-11-30T17:04:48;11.70;44.70
41953;DHT22;63613;28.200;112.870;2022-11-30T17:07:15;11.60;44.90
41953;DHT22;63613;28.200;112.870;2022-11-30T17:09:42;11.70;44.90
41953;DHT22;63613;28.200;112.870;2022-11-30T17:12:09;11.60;45.00
41953;DHT22;63613;28.200;112.870;2022-11-30T17:14:36;11.70;45.00
41953;DHT22;63613;28.200;112.870;2022-11-30T17:17:03;11.60;45.10
41953;DHT22;63613;28.200;112.870;2022-11-30T17:19:33;11.60;45.20
41953;DHT22;63613;28.200;112.870;2022-11-30T17:22:03;11.60;45.10
41953;DHT22;63613;28.200;112.870;2022-11-30T17:24:33;11.60;45.10
41953;DHT22;63613;28.200;112.870;2022-11-30T17:27:09;11.60;45.20
41953;DHT22;63613;28.200;112.870;2022-11-30T17:29:38;11.60;45.20
41953;DHT22;63613;28.200;112.870;2022-11-30T17:32:05;11.60;45.10
41953;DHT22;63613;28.200;112.870;2022-11-30T17:34:32;11.50;45.20
41953;DHT22;63613;28.200;112.870;2022-11-30T17:36:59;11.50;45.20
41953;DHT22;63613;28.200;112.870;2022-11-30T17:39:27;11.50;45.10
41953;DHT22;63613;28.200;112.870;2022-11-30T17:41:54;11.50;45.20
41953;DHT22;63613;28.200;112.870;2022-11-30T17:44:21;11.50;45.10
41953;DHT22;63613;28.200;112.870;2022-11-30T17:46:48;11.50;44.90
41953;DHT22;63613;28.200;112.870;2022-11-30T17:49:15;11.40;44.70
41953;DHT22;63613;28.200;112.870;2022-11-30T17:51:42;11.40;44.50
41953;DHT22;63613;28.200;112.870;2022-11-30T17:54:11;11.50;44.40
41953;DHT22;63613;28.200;112.870;2022-11-30T17:56:38;11.50;44.30